Time;durP1;ratioP1;P1;durP2;ratioP2;P2;SDS_P1;SDS_P2;PMS_P1;PMS_P2;Temp;Humidity;BMP_temperature;BMP_pressure;BME280_temperature;BME280_humidity;BME280_pressure;Samples;Min_cycle;Max_cycle;Signal;HPM_P1;HPM_P2
2021/01/14 00:00:41;;;;;;;8.23;6.90;;;29.70;99.90;;;;;;5075530;28;20029;-70
2021/01/14 00:03:13;;;;;;;6.75;6.25;;;29.90;99.90;;;;;;5075561;28;20031;-68
2021/01/14 00:05:41;;;;;;;8.35;7.60;;;30.10;99.90;;;;;;5075397;28;20020;-69
2021/01/14 00:08:09;;;;;;;8.48;7.78;;;30.20;99.90;;;;;;5075368;28;20020;-68
2021/01/14 00:10:36;;;;;;;6.32;5.82;;;30.40;99.90;;;;;;5075259;28;20425;-69
2021/01/14 00:13:08;;;;;;;8.93;8.13;;;30.50;99.90;;;;;;5075305;28;20407;-69
2021/01/14 00:15:36;;;;;;;8.60;7.90;;;30.60;99.90;;;;;;5073786;28;20068;-69
2021/01/14 00:18:04;;;;;;;7.63;6.80;;;30.70;99.90;;;;;;5075176;28;20456;-65
2021/01/14 00:20:31;;;;;;;8.18;6.70;;;30.80;99.90;;;;;;5075041;28;20020;-65
2021/01/14 00:22:59;;;;;;;8.32;7.65;;;30.80;99.90;;;;;;5074870;28;20020;-69
2021/01/14 00:25:26;;;;;;;9.10;8.18;;;30.90;99.90;;;;;;5074507;28;20315;-69
2021/01/14 00:27:54;;;;;;;7.90;7.00;;;30.90;99.90;;;;;;5074725;28;20024;-69
2021/01/14 00:30:31;;;;;;;7.15;6.68;;;31.10;99.90;;;;;;5074867;28;20016;-69
2021/01/14 00:33:00;;;;;;;8.30;7.60;;;31.00;99.90;;;;;;5074683;28;20020;-64
2021/01/14 00:35:28;;;;;;;7.80;7.00;;;31.20;99.90;;;;;;5074687;28;20036;-64
2021/01/14 00:37:56;;;;;;;8.48;7.47;;;31.20;99.90;;;;;;5074674;28;20052;-66
2021/01/14 00:40:35;;;;;;;8.73;7.70;;;31.20;99.90;;;;;;5074799;28;20104;-67
2021/01/14 00:43:05;;;;;;;12.63;6.65;;;31.30;99.90;;;;;;5074619;28;20052;-66
2021/01/14 00:45:33;;;;;;;8.02;6.22;;;31.50;99.90;;;;;;5074746;28;20051;-66
2021/01/14 00:48:01;;;;;;;7.45;6.85;;;31.70;99.90;;;;;;5074557;28;20024;-69
2021/01/14 00:50:30;;;;;;;6.97;6.38;;;31.70;99.90;;;;;;5074502;28;20020;-62
2021/01/14 00:52:58;;;;;;;7.20;6.53;;;31.80;99.90;;;;;;5074496;28;20034;-62
2021/01/14 00:55:25;;;;;;;10.07;7.80;;;31.80;99.90;;;;;;5074482;28;20544;-66
2021/01/14 00:57:53;;;;;;;9.90;7.70;;;31.90;99.90;;;;;;5074704;28;20025;-64
2021/01/14 01:00:22;;;;;;;8.45;6.47;;;31.90;99.90;;;;;;5074327;28;20032;-63
2021/01/14 01:02:52;;;;;;;8.98;8.05;;;32.00;99.90;;;;;;5074274;28;20400;-65
2021/01/14 01:05:20;;;;;;;7.90;7.20;;;31.90;99.90;;;;;;5074234;28;20361;-64
2021/01/14 01:07:53;;;;;;;9.93;8.73;;;31.80;99.90;;;;;;5072802;28;20033;-67
2021/01/14 01:10:21;;;;;;;8.95;8.30;;;31.80;99.90;;;;;;5074200;28;20111;-69
2021/01/14 01:12:56;;;;;;;8.18;7.43;;;31.70;99.90;;;;;;5074149;28;20021;-67
2021/01/14 01:15:24;;;;;;;7.85;7.30;;;31.70;99.90;;;;;;5073962;28;20381;-66
2021/01/14 01:17:51;;;;;;;7.15;6.45;;;31.60;99.90;;;;;;5073968;28;20495;-67
2021/01/14 01:20:18;;;;;;;8.13;7.43;;;31.40;99.90;;;;;;5073922;28;20091;-65
2021/01/14 01:22:46;;;;;;;8.25;7.50;;;31.50;99.90;;;;;;5074015;28;20052;-66
2021/01/14 01:25:13;;;;;;;9.30;8.40;;;31.50;99.90;;;;;;5073976;28;20389;-67
2021/01/14 01:27:41;;;;;;;9.18;8.35;;;31.50;99.90;;;;;;5073604;28;20515;-66
2021/01/14 01:30:09;;;;;;;9.10;7.90;;;31.60;99.90;;;;;;5073755;28;20016;-68
2021/01/14 01:32:36;;;;;;;9.77;8.10;;;31.50;99.90;;;;;;5073690;28;20052;-69
2021/01/14 01:35:05;;;;;;;7.35;6.63;;;31.60;99.90;;;;;;5072459;28;20074;-70
2021/01/14 01:37:33;;;;;;;9.43;6.75;;;31.60;99.90;;;;;;5072973;28;20032;-70
2021/01/14 01:40:00;;;;;;;8.45;7.72;;;31.30;99.90;;;;;;5073776;28;20373;-69
2021/01/14 01:42:27;;;;;;;7.63;7.13;;;31.20;99.90;;;;;;5073637;28;20024;-69
2021/01/14 01:44:56;;;;;;;7.70;6.80;;;31.10;99.90;;;;;;5073585;28;20361;-68
2021/01/14 01:47:32;;;;;;;7.20;6.20;;;31.10;99.90;;;;;;5073665;28;20028;-70
2021/01/14 01:50:04;;;;;;;10.32;7.10;;;31.30;99.90;;;;;;5073573;28;20020;-70
2021/01/14 01:52:34;;;;;;;7.97;6.40;;;31.30;99.90;;;;;;5073586;28;20021;-69
2021/01/14 01:55:04;;;;;;;7.10;6.40;;;31.70;99.90;;;;;;5073715;28;20012;-69
2021/01/14 01:57:31;;;;;;;8.98;8.13;;;31.90;99.90;;;;;;5073285;28;20033;-69
2021/01/14 01:59:59;;;;;;;7.60;7.00;;;31.70;99.90;;;;;;5073331;28;20408;-70
2021/01/14 02:02:28;;;;;;;7.63;6.70;;;31.80;99.90;;;;;;5073366;28;20096;-69
2021/01/14 02:04:56;;;;;;;11.30;7.18;;;31.90;99.90;;;;;;5073641;28;20104;-69
2021/01/14 02:07:37;;;;;;;8.13;7.05;;;31.80;99.90;;;;;;5073122;28;20086;-69
2021/01/14 02:10:28;;;;;;;9.32;7.40;;;31.90;99.90;;;;;;5073210;28;20016;-69
2021/01/14 02:13:05;;;;;;;9.45;7.53;;;31.80;99.90;;;;;;5073046;28;20095;-68
2021/01/14 02:15:34;;;;;;;8.35;7.65;;;31.90;99.90;;;;;;5072812;28;20044;-69
2021/01/14 02:18:02;;;;;;;10.17;7.47;;;32.00;99.90;;;;;;5073078;28;20025;-69
2021/01/14 02:20:31;;;;;;;7.50;6.90;;;32.00;99.90;;;;;;5073072;28;20119;-69
2021/01/14 02:23:05;;;;;;;7.40;6.70;;;32.10;99.90;;;;;;5072844;28;20515;-68
2021/01/14 02:25:44;;;;;;;6.95;6.35;;;32.10;99.90;;;;;;5073052;28;20500;-69
2021/01/14 02:28:13;;;;;;;6.87;6.17;;;32.10;99.90;;;;;;5073062;28;20024;-69
2021/01/14 02:30:41;;;;;;;6.50;5.80;;;32.10;99.90;;;;;;5073024;28;20081;-69
2021/01/14 02:33:13;;;;;;;7.22;5.40;;;32.20;99.90;;;;;;5072959;28;20027;-69
2021/01/14 02:35:40;;;;;;;6.30;5.70;;;32.20;99.90;;;;;;5072913;28;20420;-69
2021/01/14 02:38:08;;;;;;;9.82;5.70;;;32.20;99.90;;;;;;5072832;28;20078;-64
2021/01/14 02:40:35;;;;;;;6.13;5.50;;;31.90;99.90;;;;;;5072759;28;20388;-66
2021/01/14 02:43:02;;;;;;;6.03;5.50;;;32.10;99.90;;;;;;5072864;28;20094;-64
2021/01/14 02:45:30;;;;;;;8.73;6.40;;;32.10;99.90;;;;;;5072826;28;20032;-64
2021/01/14 02:47:59;;;;;;;9.57;8.65;;;32.20;99.90;;;;;;5072955;28;20484;-65
2021/01/14 02:50:27;;;;;;;9.87;9.17;;;32.10;99.90;;;;;;5077061;28;20027;-65
2021/01/14 02:53:00;;;;;;;9.65;8.95;;;32.30;99.90;;;;;;5076767;28;20017;-65
2021/01/14 02:55:29;;;;;;;9.57;8.60;;;32.60;99.90;;;;;;5076748;28;20032;-65
2021/01/14 02:57:57;;;;;;;9.43;8.73;;;32.90;99.90;;;;;;5076712;28;20028;-65
2021/01/14 03:00:25;;;;;;;9.13;8.40;;;33.00;99.90;;;;;;5076552;28;20273;-65
2021/01/14 03:02:52;;;;;;;10.55;9.65;;;33.20;99.90;;;;;;5076564;28;20080;-66
2021/01/14 03:05:19;;;;;;;9.60;8.60;;;33.20;99.90;;;;;;5077048;28;20029;-66
2021/01/14 03:07:47;;;;;;;9.50;8.88;;;33.00;99.90;;;;;;5076390;28;20025;-65
2021/01/14 03:10:14;;;;;;;9.30;8.57;;;33.00;99.90;;;;;;5076600;28;20029;-65
2021/01/14 03:12:41;;;;;;;9.75;8.90;;;32.70;99.90;;;;;;5076429;28;20162;-66
2021/01/14 03:15:09;;;;;;;9.02;8.32;;;32.40;99.90;;;;;;5076044;28;20112;-64
2021/01/14 03:17:37;;;;;;;10.13;7.60;;;32.70;99.90;;;;;;5076554;28;20037;-65
2021/01/14 03:20:09;;;;;;;8.60;7.80;;;32.80;99.90;;;;;;5076208;28;20107;-65
2021/01/14 03:22:40;;;;;;;9.23;8.18;;;32.60;99.90;;;;;;5076137;28;20020;-70
2021/01/14 03:25:10;;;;;;;9.02;8.05;;;32.30;99.90;;;;;;5076026;28;20024;-71
2021/01/14 03:27:41;;;;;;;9.20;8.45;;;32.40;99.90;;;;;;5075866;28;20047;-67
2021/01/14 03:30:10;;;;;;;9.15;8.50;;;32.30;99.90;;;;;;5074763;28;20094;-70
2021/01/14 03:32:38;;;;;;;8.65;8.00;;;32.40;99.90;;;;;;5075965;28;20027;-71
2021/01/14 03:35:07;;;;;;;8.35;7.55;;;32.20;99.90;;;;;;5075940;28;20028;-72
2021/01/14 03:37:41;;;;;;;8.43;7.78;;;32.20;99.90;;;;;;5075916;28;20084;-69
2021/01/14 03:40:11;;;;;;;9.18;8.10;;;32.10;99.90;;;;;;5075878;28;20024;-67
2021/01/14 03:42:39;;;;;;;8.35;7.57;;;32.00;99.90;;;;;;5075731;28;20100;-69
2021/01/14 03:45:07;;;;;;;8.95;8.10;;;32.00;99.90;;;;;;5075786;28;20025;-68
2021/01/14 03:47:35;;;;;;;9.20;8.30;;;32.30;99.90;;;;;;5075546;28;20517;-67
2021/01/14 03:50:03;;;;;;;8.23;7.30;;;32.40;99.90;;;;;;5075756;28;20020;-70
2021/01/14 03:52:30;;;;;;;8.40;7.70;;;32.40;99.90;;;;;;5075711;28;20016;-69
2021/01/14 03:54:57;;;;;;;8.75;7.35;;;32.50;99.90;;;;;;5075608;28;20048;-69
2021/01/14 03:57:25;;;;;;;7.35;4.30;;;32.70;99.90;;;;;;5075648;28;20096;-67
2021/01/14 03:59:52;;;;;;;6.15;4.47;;;32.60;99.90;;;;;;5075138;28;20103;-68
2021/01/14 04:02:19;;;;;;;8.60;6.68;;;32.50;99.90;;;;;;5075161;28;20054;-66
2021/01/14 04:04:47;;;;;;;8.15;7.47;;;32.60;99.90;;;;;;5075484;28;20036;-66
2021/01/14 04:07:15;;;;;;;7.13;6.43;;;32.50;99.90;;;;;;5075294;28;20500;-66
2021/01/14 04:09:43;;;;;;;7.28;5.18;;;32.40;99.90;;;;;;5075337;28;20069;-67
2021/01/14 04:12:10;;;;;;;7.55;6.85;;;32.30;99.90;;;;;;5075275;28;20020;-67
2021/01/14 04:14:37;;;;;;;8.60;7.80;;;32.10;99.90;;;;;;5073774;28;20545;-67
2021/01/14 04:17:05;;;;;;;7.20;6.60;;;32.10;99.90;;;;;;5073967;28;20028;-66
2021/01/14 04:19:32;;;;;;;8.25;6.70;;;31.80;99.90;;;;;;5075292;28;20025;-66
2021/01/14 04:21:59;;;;;;;6.88;6.25;;;31.90;99.90;;;;;;5075164;28;20028;-66
2021/01/14 04:24:36;;;;;;;7.38;6.68;;;32.00;99.90;;;;;;5075140;28;20493;-66
2021/01/14 04:27:06;;;;;;;7.88;7.10;;;32.20;99.90;;;;;;5074931;28;20028;-68
2021/01/14 04:29:34;;;;;;;7.97;7.05;;;32.30;99.90;;;;;;5073716;28;20025;-67
2021/01/14 04:32:01;;;;;;;7.82;7.20;;;32.60;99.90;;;;;;5074830;28;20542;-66
2021/01/14 04:34:29;;;;;;;10.18;7.80;;;32.60;99.90;;;;;;5074896;28;20021;-67
2021/01/14 04:37:00;;;;;;;8.27;7.47;;;32.40;99.90;;;;;;5074787;28;20082;-66
2021/01/14 04:39:28;;;;;;;8.00;7.20;;;32.30;99.90;;;;;;5074808;28;20420;-65
2021/01/14 04:41:58;;;;;;;7.60;6.93;;;32.10;99.90;;;;;;5074881;28;20409;-65
2021/01/14 04:44:27;;;;;;;9.15;7.30;;;31.90;99.90;;;;;;5074629;28;20435;-66
2021/01/14 04:47:15;;;;;;;11.48;6.82;;;31.90;99.90;;;;;;5074516;28;20035;-65
2021/01/14 04:49:46;;;;;;;8.90;7.95;;;31.80;99.90;;;;;;5074768;28;20103;-66
2021/01/14 04:52:17;;;;;;;12.55;7.43;;;31.60;99.90;;;;;;5073323;28;20031;-64
2021/01/14 04:54:46;;;;;;;7.72;6.50;;;31.70;99.90;;;;;;5074462;28;20110;-67
2021/01/14 04:57:20;;;;;;;7.57;6.82;;;32.00;99.90;;;;;;5074611;28;20024;-71
2021/01/14 05:00:02;;;;;;;10.13;7.30;;;32.00;99.90;;;;;;5074714;28;20032;-72
2021/01/14 05:02:39;;;;;;;7.35;6.78;;;32.00;99.90;;;;;;5074331;28;20380;-68
2021/01/14 05:05:12;;;;;;;7.57;6.85;;;31.90;99.90;;;;;;5074193;28;20031;-69
2021/01/14 05:07:54;;;;;;;8.85;6.60;;;32.00;99.90;;;;;;5074563;28;20104;-68
2021/01/14 05:10:23;;;;;;;8.07;7.25;;;32.10;99.90;;;;;;5074357;28;20027;-69
2021/01/14 05:12:55;;;;;;;8.43;6.82;;;32.20;99.90;;;;;;5074095;28;20044;-69
2021/01/14 05:15:26;;;;;;;8.90;7.57;;;32.10;99.90;;;;;;5073780;28;20051;-69
2021/01/14 05:17:59;;;;;;;9.05;7.20;;;32.40;99.90;;;;;;5074492;28;20099;-68
2021/01/14 05:20:27;;;;;;;7.55;6.85;;;32.40;99.90;;;;;;5074094;28;20043;-69
2021/01/14 05:23:05;;;;;;;9.07;6.55;;;32.20;99.90;;;;;;5073839;28;20024;-67
2021/01/14 05:25:34;;;;;;;8.57;6.97;;;32.20;99.90;;;;;;5073853;28;20685;-70
2021/01/14 05:28:11;;;;;;;10.48;8.07;;;32.40;99.90;;;;;;5073612;28;20033;-70
2021/01/14 05:30:42;;;;;;;9.25;6.63;;;32.80;99.90;;;;;;5073713;28;20023;-70
2021/01/14 05:33:15;;;;;;;10.27;7.70;;;33.00;99.90;;;;;;5073618;28;20028;-70
2021/01/14 05:35:50;;;;;;;7.45;6.85;;;33.00;99.90;;;;;;5073450;28;20480;-65
2021/01/14 05:38:28;;;;;;;9.25;6.50;;;33.00;99.90;;;;;;5073339;28;20031;-65
2021/01/14 05:41:11;;;;;;;9.43;6.00;;;32.80;99.90;;;;;;5073461;28;20029;-66
2021/01/14 05:44:02;;;;;;;7.75;6.70;;;32.50;99.90;;;;;;5073498;28;20074;-66
2021/01/14 05:46:31;;;;;;;9.70;6.28;;;32.40;99.90;;;;;;5073377;28;20495;-64
2021/01/14 05:49:00;;;;;;;9.23;6.80;;;32.20;99.90;;;;;;5073422;28;20023;-65
2021/01/14 05:51:29;;;;;;;8.23;7.47;;;32.40;99.90;;;;;;5073461;28;20019;-67
2021/01/14 05:54:03;;;;;;;7.75;7.00;;;32.30;99.90;;;;;;5073425;28;20077;-67
2021/01/14 05:56:49;;;;;;;9.30;7.60;;;32.20;99.90;;;;;;5073319;28;20029;-66
2021/01/14 05:59:32;;;;;;;9.13;7.93;;;32.20;99.90;;;;;;5073399;28;20036;-62
2021/01/14 06:02:01;;;;;;;9.07;7.15;;;32.20;99.90;;;;;;5073160;28;20020;-64
2021/01/14 06:04:30;;;;;;;7.93;7.13;;;32.30;99.90;;;;;;5072964;28;20021;-65
2021/01/14 06:07:04;;;;;;;8.60;7.50;;;32.60;99.90;;;;;;5073151;28;20524;-66
2021/01/14 06:09:41;;;;;;;8.30;7.55;;;32.60;99.90;;;;;;5073145;28;20025;-65
2021/01/14 06:12:11;;;;;;;9.68;7.55;;;32.60;99.90;;;;;;5073104;28;20024;-65
2021/01/14 06:14:39;;;;;;;8.00;7.20;;;32.60;99.90;;;;;;5072977;28;20017;-66
2021/01/14 06:17:08;;;;;;;9.07;7.10;;;32.40;99.90;;;;;;5073257;28;20107;-66
2021/01/14 06:19:36;;;;;;;8.80;7.03;;;32.40;99.90;;;;;;5073197;28;20025;-66
2021/01/14 06:22:05;;;;;;;7.88;7.07;;;32.60;99.90;;;;;;5073131;28;20389;-66
2021/01/14 06:24:36;;;;;;;8.50;7.72;;;32.90;99.90;;;;;;5072656;28;20028;-66
2021/01/14 06:27:06;;;;;;;8.00;7.20;;;32.80;99.90;;;;;;5071720;28;20059;-66
2021/01/14 06:29:38;;;;;;;10.30;7.70;;;32.70;99.90;;;;;;5072985;28;20017;-67
2021/01/14 06:32:09;;;;;;;11.52;7.32;;;32.40;99.90;;;;;;5073081;28;20028;-67
2021/01/14 06:34:39;;;;;;;7.95;7.07;;;32.00;99.90;;;;;;5073068;28;20020;-67
2021/01/14 06:37:13;;;;;;;8.00;7.10;;;32.10;99.90;;;;;;5072996;28;20103;-67
2021/01/14 06:39:45;;;;;;;10.80;7.53;;;32.40;99.90;;;;;;5073005;28;20038;-67
2021/01/14 06:42:22;;;;;;;8.50;7.70;;;32.50;99.90;;;;;;5073135;28;20028;-67
2021/01/14 06:45:00;;;;;;;9.13;7.78;;;32.40;99.90;;;;;;5073083;28;20044;-67
2021/01/14 06:47:40;;;;;;;8.07;6.78;;;32.50;99.90;;;;;;5072883;28;20028;-67
2021/01/14 06:50:20;;;;;;;8.27;6.95;;;33.00;99.90;;;;;;5073023;28;20012;-67
2021/01/14 06:53:01;;;;;;;11.45;6.95;;;33.60;99.90;;;;;;5072962;28;20096;-67
2021/01/14 06:55:47;;;;;;;8.55;7.72;;;34.10;99.90;;;;;;5072637;28;20025;-65
2021/01/14 06:58:20;;;;;;;8.38;7.68;;;34.40;99.90;;;;;;5072918;28;20039;-66
2021/01/14 07:00:50;;;;;;;8.07;7.47;;;35.00;99.90;;;;;;5072851;28;20484;-66
2021/01/14 07:03:20;;;;;;;7.65;5.68;;;35.20;99.30;;;;;;5072660;28;20496;-66
2021/01/14 07:05:53;;;;;;;7.63;6.20;;;35.10;98.30;;;;;;5072606;28;20032;-66
2021/01/14 07:08:42;;;;;;;6.45;5.80;;;35.00;98.40;;;;;;5072609;28;20020;-66
2021/01/14 07:11:24;;;;;;;6.30;5.90;;;35.10;97.80;;;;;;5072818;28;20028;-65
2021/01/14 07:13:53;;;;;;;6.35;5.90;;;34.40;96.40;;;;;;5071344;28;20119;-65
2021/01/14 07:16:25;;;;;;;6.18;5.60;;;33.90;97.10;;;;;;5072506;28;20064;-66
2021/01/14 07:18:53;;;;;;;6.10;5.70;;;33.70;96.80;;;;;;5072587;28;20065;-66
2021/01/14 07:21:44;;;;;;;6.38;5.80;;;33.40;97.80;;;;;;5072555;28;20107;-66
2021/01/14 07:24:20;;;;;;;6.72;6.22;;;33.30;97.90;;;;;;5072568;28;20024;-65
2021/01/14 07:27:01;;;;;;;6.20;5.70;;;33.10;98.70;;;;;;5072274;28;20489;-65
2021/01/14 07:29:29;;;;;;;6.55;6.00;;;32.60;98.90;;;;;;5072321;28;20025;-66
2021/01/14 07:31:59;;;;;;;5.97;5.45;;;32.20;97.60;;;;;;5072265;28;20025;-65
2021/01/14 07:34:45;;;;;;;5.22;4.80;;;31.80;97.40;;;;;;5072202;28;20123;-70
2021/01/14 07:37:14;;;;;;;8.00;5.55;;;31.60;99.40;;;;;;5075364;28;20115;-69
2021/01/14 07:39:56;;;;;;;14.48;6.88;;;31.50;99.90;;;;;;5075930;28;20385;-69
2021/01/14 07:42:33;;;;;;;15.98;6.57;;;31.30;99.90;;;;;;5075847;28;20021;-70
2021/01/14 07:45:05;;;;;;;19.17;6.47;;;31.00;99.90;;;;;;5075831;28;20025;-69
2021/01/14 07:47:32;;;;;;;14.15;6.72;;;30.80;99.90;;;;;;5075736;28;20086;-70
2021/01/14 07:50:18;;;;;;;14.48;8.27;;;30.90;99.90;;;;;;5075738;28;20032;-69
2021/01/14 07:52:47;;;;;;;16.63;8.30;;;30.90;99.90;;;;;;5075772;28;20016;-70
2021/01/14 07:55:25;;;;;;;13.63;9.13;;;31.10;99.90;;;;;;5075711;28;20516;-70
2021/01/14 07:58:03;;;;;;;14.90;9.45;;;30.90;99.90;;;;;;5075672;28;20436;-71
2021/01/14 08:00:31;;;;;;;20.42;11.68;;;30.40;99.90;;;;;;5075481;28;20026;-71
2021/01/14 08:03:13;;;;;;;28.25;13.57;;;29.70;99.90;;;;;;5075614;28;20032;-70
2021/01/14 08:05:59;;;;;;;33.90;14.23;;;29.10;99.90;;;;;;5075497;28;20434;-71
2021/01/14 08:08:36;;;;;;;27.85;13.65;;;28.50;99.90;;;;;;5075434;28;20370;-70
2021/01/14 08:11:11;;;;;;;29.55;12.88;;;28.10;99.90;;;;;;5075423;28;20025;-71
2021/01/14 08:14:23;;;;;;;27.52;12.57;;;28.00;99.90;;;;;;5073962;28;20107;-71
2021/01/14 08:16:54;;;;;;;25.15;13.57;;;27.90;99.90;;;;;;5072424;28;20074;-71
2021/01/14 08:19:30;;;;;;;30.15;14.82;;;27.80;99.90;;;;;;5075269;28;20427;-71
2021/01/14 08:22:02;;;;;;;33.30;16.00;;;27.40;99.90;;;;;;5075358;28;20025;-73
2021/01/14 08:24:37;;;;;;;40.25;16.85;;;27.00;99.90;;;;;;5075485;28;20032;-72
2021/01/14 08:27:21;;;;;;;32.83;15.98;;;26.60;99.90;;;;;;5075040;28;20024;-71
2021/01/14 08:29:57;;;;;;;38.60;16.88;;;26.30;99.90;;;;;;5075072;28;20013;-71
2021/01/14 08:32:46;;;;;;;35.28;16.25;;;26.10;99.90;;;;;;5075001;28;20025;-70
2021/01/14 08:35:20;;;;;;;38.85;16.95;;;25.80;99.90;;;;;;5075036;28;20020;-70
2021/01/14 08:37:56;;;;;;;38.10;16.80;;;25.70;99.90;;;;;;5074928;28;20067;-69
2021/01/14 08:40:37;;;;;;;43.47;20.10;;;25.50;99.90;;;;;;5074759;28;20020;-71
2021/01/14 08:43:04;;;;;;;44.60;19.08;;;25.40;99.90;;;;;;5074708;28;20070;-72
2021/01/14 08:45:56;;;;;;;44.45;18.10;;;25.40;99.90;;;;;;5074771;28;20113;-72
2021/01/14 08:48:24;;;;;;;40.33;16.35;;;25.50;99.90;;;;;;5074325;28;20020;-72
2021/01/14 08:51:02;;;;;;;33.80;17.88;;;25.60;99.90;;;;;;5074555;28;20040;-74
2021/01/14 08:53:32;;;;;;;41.78;16.60;;;25.60;99.90;;;;;;5074600;28;20017;-73
2021/01/14 08:56:07;;;;;;;34.47;16.83;;;25.60;99.90;;;;;;5074609;28;20017;-75
2021/01/14 08:58:38;;;;;;;39.70;16.20;;;25.50;99.90;;;;;;5074744;28;20040;-75
2021/01/14 09:01:17;;;;;;;38.80;17.70;;;25.50;99.90;;;;;;5074595;28;20021;-75
2021/01/14 09:03:47;;;;;;;38.85;19.70;;;25.30;99.90;;;;;;5074578;28;20051;-74
2021/01/14 09:06:28;;;;;;;36.65;19.67;;;25.30;99.90;;;;;;5074348;28;20074;-74
2021/01/14 09:08:59;;;;;;;43.88;22.33;;;25.00;99.90;;;;;;5074422;28;20023;-74
2021/01/14 09:11:27;;;;;;;;;;;24.90;99.90;;;;;;5073413;28;20028;-72
2021/01/14 09:14:14;;;;;;;41.63;21.85;;;24.70;99.90;;;;;;5074063;28;19951;-74
2021/01/14 09:16:43;;;;;;;40.08;21.38;;;24.50;99.90;;;;;;5073740;28;20139;-73
2021/01/14 09:19:24;;;;;;;43.25;23.63;;;24.30;99.90;;;;;;5073942;28;20029;-74
2021/01/14 09:21:51;;;;;;;40.13;21.77;;;24.10;99.90;;;;;;5073968;28;20028;-72
2021/01/14 09:24:18;;;;;;;38.67;21.20;;;23.90;99.90;;;;;;5073818;28;20024;-72
2021/01/14 09:26:50;;;;;;;35.92;22.35;;;23.90;99.90;;;;;;5073794;28;20418;-72
2021/01/14 09:29:19;;;;;;;49.20;24.33;;;23.90;99.90;;;;;;5073766;28;20063;-74
2021/01/14 09:31:47;;;;;;;40.00;21.57;;;23.80;99.90;;;;;;5073631;28;20032;-72
2021/01/14 09:34:14;;;;;;;48.30;22.55;;;23.80;99.90;;;;;;5073634;28;20317;-73
2021/01/14 09:36:42;;;;;;;42.22;22.58;;;23.80;99.90;;;;;;5073599;28;20103;-75
2021/01/14 09:39:16;;;;;;;44.65;22.70;;;23.80;99.90;;;;;;5073806;28;20031;-73
2021/01/14 09:41:44;;;;;;;44.20;22.30;;;23.80;99.90;;;;;;5073471;28;20040;-73
2021/01/14 09:44:15;;;;;;;40.83;21.33;;;23.80;99.90;;;;;;5073510;28;20047;-73
2021/01/14 09:46:45;;;;;;;39.65;21.20;;;23.80;99.90;;;;;;5073429;28;20415;-74
2021/01/14 09:49:14;;;;;;;49.85;24.55;;;23.70;99.90;;;;;;5073439;28;20104;-74
2021/01/14 09:51:45;;;;;;;46.67;23.80;;;23.60;99.90;;;;;;5073356;28;20028;-72
2021/01/14 09:54:13;;;;;;;38.65;21.73;;;23.50;99.90;;;;;;5073533;28;20036;-73
2021/01/14 09:56:48;;;;;;;44.05;21.92;;;23.60;99.90;;;;;;5073243;28;20077;-73
2021/01/14 09:59:34;;;;;;;39.53;21.85;;;23.50;99.90;;;;;;5072703;28;20059;-74
2021/01/14 10:02:18;;;;;;;45.80;22.70;;;23.50;99.90;;;;;;5073234;28;20020;-73
2021/01/14 10:05:02;;;;;;;40.17;21.52;;;23.50;99.90;;;;;;5073190;28;20020;-74
2021/01/14 10:07:33;;;;;;;40.78;21.33;;;23.50;99.90;;;;;;5073065;28;20108;-72
2021/01/14 10:10:01;;;;;;;39.72;21.52;;;23.40;99.90;;;;;;5073122;28;20024;-73
2021/01/14 10:12:32;;;;;;;41.67;20.70;;;23.40;99.90;;;;;;5073129;28;20090;-75
2021/01/14 10:15:14;;;;;;;37.20;19.67;;;23.50;99.90;;;;;;5073030;28;20048;-75
2021/01/14 10:17:42;;;;;;;48.17;21.52;;;23.60;99.90;;;;;;5073451;28;20028;-75
2021/01/14 10:20:13;;;;;;;38.90;18.83;;;23.80;99.90;;;;;;5073072;28;20394;-76
2021/01/14 10:22:47;;;;;;;39.67;18.42;;;23.90;99.90;;;;;;5072918;28;20024;-75
2021/01/14 10:25:16;;;;;;;37.17;17.40;;;24.00;99.90;;;;;;5071591;28;20024;-73
2021/01/14 10:28:10;;;;;;;32.50;17.70;;;23.90;99.90;;;;;;5072814;28;20033;-71
2021/01/14 10:30:41;;;;;;;36.83;16.98;;;24.10;99.90;;;;;;5073025;28;20025;-72
2021/01/14 10:33:09;;;;;;;35.72;16.23;;;24.30;99.90;;;;;;5072927;28;20544;-73
2021/01/14 10:35:38;;;;;;;38.15;17.52;;;24.20;99.90;;;;;;5072955;28;20055;-72
2021/01/14 10:38:07;;;;;;;30.00;15.68;;;24.30;99.90;;;;;;5072874;28;20063;-72
2021/01/14 10:40:37;;;;;;;37.30;17.17;;;24.30;99.90;;;;;;5072733;28;20025;-73
2021/01/14 10:43:04;;;;;;;33.90;17.17;;;24.30;99.90;;;;;;5072963;28;20031;-73
2021/01/14 10:45:34;;;;;;;39.40;16.58;;;24.20;99.90;;;;;;5072879;28;20395;-74
2021/01/14 10:48:15;;;;;;;38.33;16.33;;;24.20;99.90;;;;;;5072811;28;20021;-73
2021/01/14 10:50:45;;;;;;;42.47;17.27;;;24.00;99.90;;;;;;5072823;28;20055;-74
2021/01/14 10:53:13;;;;;;;;;;;23.80;99.90;;;;;;5073240;28;20078;-71
2021/01/14 10:55:44;;;;;;;39.70;18.45;;;23.60;99.90;;;;;;5071560;28;20330;-73
2021/01/14 10:58:21;;;;;;;41.80;16.55;;;23.60;99.90;;;;;;5071506;28;20056;-73
2021/01/14 11:00:49;;;;;;;34.70;16.15;;;23.60;99.90;;;;;;5071398;28;20047;-73
2021/01/14 11:03:23;;;;;;;43.38;15.95;;;23.60;99.90;;;;;;5072688;28;20028;-74
2021/01/14 11:06:00;;;;;;;39.45;16.30;;;23.60;99.90;;;;;;5072862;28;20035;-73
2021/01/14 11:08:38;;;;;;;43.42;15.75;;;23.60;99.90;;;;;;5072557;28;20024;-74
2021/01/14 11:11:06;;;;;;;33.40;15.00;;;23.70;99.90;;;;;;5075755;28;20494;-72
2021/01/14 11:13:53;;;;;;;43.75;15.55;;;23.60;99.90;;;;;;5076434;28;20100;-74
2021/01/14 11:16:26;;;;;;;34.42;16.02;;;23.60;99.90;;;;;;5076203;28;20102;-74
2021/01/14 11:18:56;;;;;;;50.88;17.83;;;23.50;99.90;;;;;;5075117;28;20058;-73
2021/01/14 11:21:34;;;;;;;41.25;16.13;;;23.50;99.90;;;;;;5076502;28;20461;-72
2021/01/14 11:24:02;;;;;;;41.92;16.83;;;23.40;99.90;;;;;;5076239;28;20062;-71
2021/01/14 11:26:30;;;;;;;36.28;16.15;;;23.40;99.90;;;;;;5076117;28;20072;-72
2021/01/14 11:28:58;;;;;;;30.90;16.65;;;23.30;99.90;;;;;;5076111;28;20415;-72
2021/01/14 11:31:27;;;;;;;41.85;16.48;;;23.20;99.90;;;;;;5076084;28;20016;-72
2021/01/14 11:33:54;;;;;;;31.10;15.15;;;23.20;99.90;;;;;;5076131;28;20023;-72
2021/01/14 11:36:22;;;;;;;31.85;15.43;;;23.20;99.90;;;;;;5076004;28;20362;-72
2021/01/14 11:38:51;;;;;;;33.88;15.60;;;23.20;99.90;;;;;;5076042;28;20424;-72
2021/01/14 11:41:20;;;;;;;33.38;16.63;;;23.30;99.90;;;;;;5075929;28;20031;-72
2021/01/14 11:43:48;;;;;;;34.97;14.85;;;23.30;99.90;;;;;;5075806;28;20025;-72
2021/01/14 11:46:16;;;;;;;40.72;17.30;;;23.10;99.90;;;;;;5075734;28;20025;-72
2021/01/14 11:48:45;;;;;;;38.08;15.80;;;23.10;99.90;;;;;;5075785;28;20025;-72
2021/01/14 11:51:12;;;;;;;35.88;16.95;;;23.20;99.90;;;;;;5075565;28;20028;-71
2021/01/14 11:53:39;;;;;;;38.00;15.68;;;23.10;99.90;;;;;;5075570;28;20538;-72
2021/01/14 11:56:07;;;;;;;37.90;15.68;;;23.10;99.90;;;;;;5075769;28;20564;-72
2021/01/14 11:58:37;;;;;;;39.17;15.18;;;22.90;99.90;;;;;;5075559;28;20074;-73
2021/01/14 12:01:05;;;;;;;37.55;15.32;;;22.70;99.90;;;;;;5075519;28;20443;-70
2021/01/14 12:03:33;;;;;;;33.92;15.50;;;22.50;99.90;;;;;;5075489;28;20477;-74
2021/01/14 12:06:00;;;;;;;35.45;17.63;;;22.40;99.90;;;;;;5075431;28;20363;-72
2021/01/14 12:08:27;;;;;;;33.42;15.77;;;22.30;99.90;;;;;;5075301;28;20059;-73
2021/01/14 12:10:55;;;;;;;37.55;17.75;;;22.20;99.90;;;;;;5075362;28;20052;-72
2021/01/14 12:13:22;;;;;;;35.83;17.67;;;22.20;99.90;;;;;;5075263;28;20424;-73
2021/01/14 12:15:50;;;;;;;29.90;17.60;;;22.10;99.90;;;;;;5075032;28;20056;-73
2021/01/14 12:18:17;;;;;;;31.40;17.67;;;22.10;99.90;;;;;;5075301;28;20443;-73
2021/01/14 12:20:45;;;;;;;41.00;18.88;;;22.10;99.90;;;;;;5075085;28;20028;-75
2021/01/14 12:23:12;;;;;;;36.55;18.60;;;22.10;99.90;;;;;;5074636;28;20029;-72
2021/01/14 12:25:39;;;;;;;42.20;18.35;;;22.10;99.90;;;;;;5074956;28;20052;-74
2021/01/14 12:28:07;;;;;;;40.38;19.15;;;22.20;99.90;;;;;;5074866;28;20036;-72
2021/01/14 12:30:34;;;;;;;31.23;16.17;;;22.10;99.90;;;;;;5075017;28;20031;-74
2021/01/14 12:33:02;;;;;;;40.92;18.40;;;22.10;99.90;;;;;;5075140;28;20024;-73
2021/01/14 12:35:29;;;;;;;38.92;17.33;;;22.10;99.90;;;;;;5075119;28;20023;-73
2021/01/14 12:37:56;;;;;;;32.28;17.50;;;22.10;99.90;;;;;;5074879;28;20374;-73
2021/01/14 12:40:23;;;;;;;31.92;15.23;;;22.10;99.90;;;;;;5074783;28;20028;-73
2021/01/14 12:42:51;;;;;;;30.08;16.98;;;22.20;99.90;;;;;;5074663;28;20024;-74
2021/01/14 12:45:19;;;;;;;37.55;15.65;;;22.20;99.90;;;;;;5074616;28;20021;-74
2021/01/14 12:47:46;;;;;;;35.95;16.40;;;22.20;99.90;;;;;;5074443;28;20374;-73
2021/01/14 12:50:15;;;;;;;36.05;17.15;;;22.10;99.90;;;;;;5074534;28;20024;-74
2021/01/14 12:52:42;;;;;;;29.92;16.10;;;22.10;99.90;;;;;;5074462;28;20021;-72
2021/01/14 12:55:10;;;;;;;32.03;15.40;;;22.10;99.90;;;;;;5074476;28;20046;-72
2021/01/14 12:57:38;;;;;;;37.85;16.08;;;22.20;99.90;;;;;;5074440;28;20559;-73
2021/01/14 13:00:06;;;;;;;34.25;16.85;;;22.10;99.90;;;;;;5074420;28;20473;-74